createdAt,value
2023-07-25T00:05:03.268Z,92.5
2023-07-25T00:10:09.347Z,95.5
2023-07-25T00:15:15.422Z,95
2023-07-25T00:20:21.554Z,94.5
2023-07-25T00:25:27.864Z,94.5
2023-07-25T00:30:33.742Z,95.5
2023-07-25T00:35:39.845Z,93.5
2023-07-25T00:40:46.045Z,94
2023-07-25T00:45:52.023Z,95
2023-07-25T00:50:58.079Z,95.5
2023-07-25T00:56:04.195Z,95
2023-07-25T01:01:10.383Z,95
2023-07-25T01:06:16.497Z,95
2023-07-25T01:11:22.560Z,95
2023-07-25T01:16:28.663Z,94.5
2023-07-25T01:21:34.695Z,95
2023-07-25T01:26:40.826Z,95
2023-07-25T01:31:46.868Z,95
2023-07-25T01:36:52.980Z,92.5
2023-07-25T01:41:59.042Z,94
2023-07-25T01:47:05.133Z,94
2023-07-25T01:52:11.353Z,94
2023-07-25T01:57:17.383Z,93
2023-07-25T02:02:23.489Z,94
2023-07-25T02:07:29.526Z,93.5
2023-07-25T02:12:35.651Z,94.5
2023-07-25T02:17:41.755Z,93.5
2023-07-25T02:22:47.815Z,93.5
2023-07-25T02:27:53.893Z,93.5
2023-07-25T02:32:59.986Z,93
2023-07-25T02:38:06.093Z,94.5
2023-07-25T02:43:12.170Z,96
2023-07-25T02:48:18.271Z,94.5
2023-07-25T02:53:24.358Z,96
2023-07-25T02:58:30.453Z,95
2023-07-25T03:03:36.579Z,95.5
2023-07-25T03:08:42.662Z,95
2023-07-25T03:13:48.765Z,95.5
2023-07-25T03:18:54.870Z,95.5
2023-07-25T03:24:00.926Z,95
2023-07-25T03:29:07.022Z,95
2023-07-25T03:34:13.247Z,95
2023-07-25T03:39:19.217Z,95
2023-07-25T03:44:25.317Z,95
2023-07-25T03:49:31.407Z,95.5
2023-07-25T03:54:37.522Z,95.5
2023-07-25T03:59:43.612Z,96
2023-07-25T04:04:49.750Z,95.5
2023-07-25T04:10:28.874Z,94.5
2023-07-25T04:15:01.944Z,95
2023-07-25T04:20:07.968Z,95.5
2023-07-25T04:25:14.079Z,95
2023-07-25T04:30:20.194Z,95
2023-07-25T04:35:26.245Z,94.5
2023-07-25T04:40:32.344Z,94.5
2023-07-25T04:45:38.501Z,94
2023-07-25T04:50:44.571Z,91.5
2023-07-25T04:55:50.657Z,94
2023-07-25T05:00:56.836Z,93.5
2023-07-25T05:06:02.855Z,93
2023-07-25T05:11:08.928Z,94
2023-07-25T05:16:15.187Z,93.5
2023-07-25T05:21:21.111Z,94
2023-07-25T05:26:27.189Z,94
2023-07-25T05:31:33.519Z,94
2023-07-25T05:36:39.410Z,93
2023-07-25T05:41:45.509Z,91.5
2023-07-25T05:46:51.602Z,83
2023-07-25T05:51:57.712Z,87.5
2023-07-25T05:57:03.809Z,91.5
2023-07-25T06:02:09.877Z,92
2023-07-25T06:07:15.951Z,92.5
2023-07-25T06:12:22.060Z,91.5
2023-07-25T06:17:28.177Z,91.5
2023-07-25T06:22:34.247Z,92
2023-07-25T06:27:40.330Z,87.5
2023-07-25T06:32:46.443Z,67.5
2023-07-25T06:37:52.572Z,62
2023-07-25T06:42:58.640Z,61
2023-07-25T06:48:04.759Z,61.5
2023-07-25T06:53:10.838Z,69
2023-07-25T06:58:16.923Z,69
2023-07-25T07:03:23.004Z,75
2023-07-25T07:08:29.081Z,76.5
2023-07-25T07:13:35.249Z,70.5
2023-07-25T07:18:41.301Z,63
2023-07-25T07:23:47.801Z,54
2023-07-25T07:28:53.463Z,49
2023-07-25T07:33:59.601Z,67
2023-07-25T07:39:05.688Z,79.5
2023-07-25T07:44:11.804Z,84
2023-07-25T07:49:18.039Z,86
2023-07-25T07:54:24.025Z,84
2023-07-25T07:59:30.057Z,74.5
2023-07-25T08:04:36.160Z,80
2023-07-25T08:09:42.258Z,76
2023-07-25T08:14:48.343Z,67.5
2023-07-25T08:19:54.436Z,75.5
2023-07-25T08:25:00.633Z,77.5
2023-07-25T08:30:06.655Z,71.5
2023-07-25T08:35:12.792Z,80
2023-07-25T08:40:18.842Z,76.5
2023-07-25T08:45:24.929Z,68.5
2023-07-25T08:50:30.988Z,71
2023-07-25T08:55:37.098Z,67.5
2023-07-25T09:00:43.178Z,70
2023-07-25T09:05:49.293Z,65
2023-07-25T09:10:57.434Z,77.5
2023-07-25T09:16:01.527Z,78.5
2023-07-25T09:21:07.589Z,76
2023-07-25T09:26:13.697Z,79
2023-07-25T09:31:19.794Z,70
2023-07-25T09:36:25.895Z,71
2023-07-25T09:41:32.123Z,72
2023-07-25T09:46:38.054Z,73.5
2023-07-25T09:51:44.139Z,70.5
2023-07-25T09:56:51.252Z,69
2023-07-25T10:01:56.342Z,71.5
2023-07-25T10:07:02.433Z,73
2023-07-25T10:12:14.187Z,69
2023-07-25T10:17:20.353Z,70.5
2023-07-25T10:22:26.398Z,75.5
2023-07-25T10:27:32.450Z,73.5
2023-07-25T10:32:38.598Z,68
2023-07-25T10:37:44.675Z,61.5
2023-07-25T10:47:56.987Z,72.5
2023-07-25T10:53:02.977Z,71
2023-07-25T10:58:14.034Z,65
2023-07-25T11:03:15.145Z,64
2023-07-25T11:08:21.221Z,61.5
2023-07-25T11:13:27.310Z,61
2023-07-25T11:18:33.406Z,63
2023-07-25T11:23:39.506Z,65.5
2023-07-25T11:28:45.720Z,63.5
2023-07-25T11:33:51.833Z,62.5
2023-07-25T11:38:57.807Z,64
2023-07-25T11:44:03.903Z,65
2023-07-25T11:49:09.982Z,61
2023-07-25T11:54:16.074Z,66
2023-07-25T11:59:22.184Z,66.5
2023-07-25T12:04:28.380Z,66.5
2023-07-25T12:09:34.354Z,63.5
2023-07-25T12:14:40.477Z,64
2023-07-25T12:19:46.565Z,73
2023-07-25T12:24:52.842Z,71.5
2023-07-25T12:29:58.748Z,77.5
2023-07-25T12:35:04.856Z,67.5
2023-07-25T12:40:11.192Z,68.5
2023-07-25T12:45:17.123Z,66.5
2023-07-25T12:50:23.104Z,73
2023-07-25T12:55:29.206Z,65.5
2023-07-25T13:00:35.522Z,65
2023-07-25T13:05:41.520Z,65.5
2023-07-25T13:10:47.498Z,69
2023-07-25T13:15:53.768Z,67.5
2023-07-25T13:20:59.731Z,71.5
2023-07-25T13:26:05.822Z,71.5
2023-07-25T13:31:11.898Z,70
2023-07-25T13:36:17.985Z,67.5
2023-07-25T13:41:24.091Z,64
2023-07-25T13:46:30.205Z,63.5
2023-07-25T13:51:36.250Z,64.5
2023-07-25T13:56:42.368Z,66.5
2023-07-25T14:01:48.443Z,68
2023-07-25T14:06:54.540Z,69
2023-07-25T14:12:00.794Z,72
2023-07-25T14:17:06.757Z,67.5
2023-07-25T14:22:12.843Z,70.5
2023-07-25T14:27:19.077Z,71
2023-07-25T14:32:26.864Z,69.5
2023-07-25T14:37:36.957Z,70.5
2023-07-25T14:42:37.216Z,69.5
2023-07-25T14:47:43.558Z,66
2023-07-25T14:52:49.390Z,71
2023-07-25T14:57:55.732Z,69.5
2023-07-25T15:03:01.701Z,62
2023-07-25T15:08:07.703Z,64
2023-07-25T15:13:13.797Z,65.5
2023-07-25T15:18:19.887Z,70
2023-07-25T15:23:25.962Z,68.5
2023-07-25T15:28:32.069Z,68.5
2023-07-25T15:33:38.208Z,70
2023-07-25T15:38:44.238Z,72.5
2023-07-25T15:43:50.350Z,75.5
2023-07-25T15:48:56.425Z,70
2023-07-25T15:54:02.522Z,73.5
2023-07-25T15:59:08.636Z,72.5
2023-07-25T16:04:14.751Z,75.5
2023-07-25T16:09:20.929Z,76
2023-07-25T16:14:26.926Z,77.5
2023-07-25T16:19:33.162Z,77
2023-07-25T16:24:39.114Z,80.5
2023-07-25T16:29:45.214Z,78
2023-07-25T16:34:51.295Z,84
2023-07-25T16:39:57.422Z,79
2023-07-25T16:45:03.493Z,80
2023-07-25T16:50:09.734Z,74.5
2023-07-25T17:00:21.805Z,80.5
2023-07-25T17:05:27.860Z,68.5
2023-07-25T17:10:33.950Z,76.5
2023-07-25T17:15:40.148Z,76
2023-07-25T17:20:46.155Z,75
2023-07-25T17:25:52.353Z,79.5
2023-07-25T17:30:58.352Z,79.5
2023-07-25T17:36:04.537Z,79
2023-07-25T17:41:10.516Z,78
2023-07-25T17:46:16.669Z,74
2023-07-25T17:51:22.731Z,71
2023-07-25T17:56:28.822Z,76
2023-07-25T18:01:35.227Z,77
2023-07-25T18:06:41.003Z,77.5
2023-07-25T18:11:47.408Z,78
2023-07-25T18:16:53.189Z,74
2023-07-25T18:21:59.272Z,75.5
2023-07-25T18:27:05.373Z,75.5
2023-07-25T18:32:11.492Z,68.5
2023-07-25T18:37:17.589Z,68
2023-07-25T18:42:23.925Z,71.5
2023-07-25T18:47:34.838Z,69.5
2023-07-25T18:52:36.133Z,71.5
2023-07-25T18:57:41.947Z,69.5
2023-07-25T19:02:48.083Z,69
2023-07-25T19:07:54.280Z,75
2023-07-25T19:13:00.251Z,76
2023-07-25T19:18:06.426Z,75.5
2023-07-25T19:23:24.098Z,82.5
2023-07-25T19:28:18.497Z,84
2023-07-25T19:33:24.623Z,82.5
2023-07-25T19:38:30.706Z,85.5
2023-07-25T19:43:36.800Z,84
2023-07-25T19:48:42.966Z,84.5
2023-07-25T19:53:50.907Z,85.5
2023-07-25T19:58:55.085Z,85.5
2023-07-25T20:04:01.208Z,82.5
2023-07-25T20:09:07.388Z,86.5
2023-07-25T20:14:13.613Z,86.5
2023-07-25T20:19:19.442Z,84
2023-07-25T20:24:25.564Z,82.5
2023-07-25T20:29:31.789Z,87.5
2023-07-25T20:34:37.750Z,85.5
2023-07-25T20:39:43.891Z,84
2023-07-25T20:44:49.932Z,87
2023-07-25T20:49:56.008Z,86
2023-07-25T20:55:02.382Z,86
2023-07-25T21:00:08.230Z,87.5
2023-07-25T21:05:14.288Z,90.5
2023-07-25T21:10:20.640Z,88
2023-07-25T21:15:26.637Z,90
2023-07-25T21:20:32.605Z,90
2023-07-25T21:25:38.853Z,90
2023-07-25T21:30:44.768Z,91
2023-07-25T21:35:50.894Z,88
2023-07-25T21:40:56.953Z,90.5
2023-07-25T21:46:03.139Z,89.5
2023-07-25T21:51:09.144Z,86.5
2023-07-25T21:56:15.229Z,91
2023-07-25T22:01:21.337Z,88
2023-07-25T22:06:27.431Z,89
2023-07-25T22:11:33.574Z,90
2023-07-25T22:16:39.832Z,86
2023-07-25T22:21:45.704Z,87
2023-07-25T22:26:51.817Z,89
2023-07-25T22:31:57.922Z,89.5
2023-07-25T22:37:04.006Z,92
2023-07-25T22:42:10.105Z,91
2023-07-25T22:47:16.176Z,91
2023-07-25T22:52:22.268Z,91.5
2023-07-25T22:57:28.368Z,91.5
2023-07-25T23:02:34.539Z,89.5
2023-07-25T23:07:40.555Z,89
2023-07-25T23:12:46.808Z,91.5
2023-07-25T23:17:52.804Z,90
2023-07-25T23:22:58.991Z,91
2023-07-25T23:28:05.072Z,91
2023-07-25T23:33:11.081Z,90
2023-07-25T23:38:17.130Z,90.5
2023-07-25T23:43:23.215Z,92
2023-07-25T23:48:29.595Z,90.5
2023-07-25T23:53:35.425Z,90.5
2023-07-25T23:58:41.489Z,89.5
